Time;durP1;ratioP1;P1;durP2;ratioP2;P2;SDS_P1;SDS_P2;PMS_P1;PMS_P2;Temp;Humidity;BMP_temperature;BMP_pressure;BME280_temperature;BME280_humidity;BME280_pressure;Samples;Min_cycle;Max_cycle;Signal;HPM_P1;HPM_P2
2021/06/12 00:01:33;;;;;;;;;30.50;30.50;;;;;19.20;82.13;100761.91;5055282;28;8843;-78
2021/06/12 00:04:29;;;;;;;;;26.75;26.25;;;;;19.13;82.67;100762.66;5056249;28;8979;-78
2021/06/12 00:07:24;;;;;;;;;29.75;29.75;;;;;18.95;82.55;100755.28;5041406;28;8820;-78
2021/06/12 00:10:27;;;;;;;;;27.75;27.75;;;;;18.79;83.16;100756.34;5054787;28;8941;-78
2021/06/12 00:13:23;;;;;;;;;32.75;31.25;;;;;18.71;83.94;100751.84;5054584;28;8844;-77
2021/06/12 00:16:19;;;;;;;;;30.75;30.50;;;;;18.96;83.71;100756.91;5054507;28;8862;-78
2021/06/12 00:19:15;;;;;;;;;29.25;29.00;;;;;18.87;83.34;100757.22;5054550;28;8828;-79
2021/06/12 00:22:10;;;;;;;;;29.75;27.00;;;;;18.82;83.54;100763.97;5054117;28;8839;-78
2021/06/12 00:25:07;;;;;;;;;31.00;29.75;;;;;18.78;84.00;100756.69;5040867;28;8963;-78
2021/06/12 00:28:02;;;;;;;;;26.25;26.25;;;;;18.78;83.40;100756.69;5054435;28;8872;-78
2021/06/12 00:30:58;;;;;;;;;26.50;26.50;;;;;18.66;83.51;100754.19;5054448;28;8850;-78
2021/06/12 00:33:54;;;;;;;;;23.75;23.25;;;;;18.74;83.25;100753.06;5040870;28;8954;-79
2021/06/12 00:36:51;;;;;;;;;29.50;29.00;;;;;18.85;82.74;100756.78;5054074;28;8890;-78
2021/06/12 00:39:47;;;;;;;;;29.00;28.00;;;;;18.81;82.69;100750.34;5054207;28;8857;-78
2021/06/12 00:42:43;;;;;;;;;29.50;29.50;;;;;18.73;82.86;100755.06;5054035;28;8828;-79
2021/06/12 00:45:45;;;;;;;;;29.00;29.00;;;;;18.59;83.59;100758.50;5042407;28;8858;-78
2021/06/12 00:48:45;;;;;;;;;27.00;26.25;;;;;18.49;83.57;100753.59;5054202;28;8815;-78
2021/06/12 00:51:40;;;;;;;;;29.50;28.75;;;;;18.61;83.59;100752.50;5055486;28;8844;-78
2021/06/12 00:54:36;;;;;;;;;28.00;27.50;;;;;18.83;83.63;100748.75;5042012;28;8901;-78
2021/06/12 00:57:34;;;;;;;;;32.50;31.25;;;;;18.75;82.34;100749.06;5053635;28;8831;-78
2021/06/12 01:00:30;;;;;;;;;37.25;34.00;;;;;18.86;82.20;100758.38;5053406;28;8857;-79
2021/06/12 01:03:28;;;;;;;;;32.25;31.50;;;;;18.92;81.63;100762.44;5053476;28;8844;-78
2021/06/12 01:06:23;;;;;;;;;45.33;37.00;;;;;18.76;82.85;100745.88;5053386;28;8824;-77
2021/06/12 01:09:21;;;;;;;;;57.50;46.50;;;;;18.70;82.81;100750.22;5053544;28;9085;-78
2021/06/12 01:12:51;;;;;;;;;53.25;45.25;;;;;18.74;81.99;100750.28;5040071;28;9607;-78
2021/06/12 01:16:13;;;;;;;;;55.75;44.75;;;;;18.68;82.78;100743.41;5053394;28;9782;-78
2021/06/12 01:19:18;;;;;;;;;60.00;49.50;;;;;18.55;83.73;100745.63;5040045;28;9620;-78
2021/06/12 01:22:27;;;;;;;;;60.50;49.00;;;;;18.42;84.00;100747.91;5054674;28;9937;-78
2021/06/12 01:25:41;;;;;;;;;60.25;48.25;;;;;18.38;84.21;100749.03;5054794;28;9935;-78
2021/06/12 01:28:53;;;;;;;;;60.50;48.00;;;;;18.46;84.78;100756.34;5053043;28;10193;-78
2021/06/12 01:31:51;;;;;;;;;57.00;47.50;;;;;18.58;83.31;100753.28;5054742;28;9919;-78
2021/06/12 01:34:48;;;;;;;;;65.25;51.75;;;;;18.46;82.90;100750.72;5039679;28;9851;-78
2021/06/12 01:37:47;;;;;;;;;67.25;53.75;;;;;18.53;82.97;100754.41;5040976;28;10370;-78
2021/06/12 01:40:45;;;;;;;;;72.00;59.25;;;;;18.22;84.08;100743.66;5039760;28;10671;-78
2021/06/12 01:43:42;;;;;;;;;72.75;59.50;;;;;18.30;84.32;100750.97;5039505;28;10827;-78
2021/06/12 01:46:39;;;;;;;;;74.25;62.25;;;;;18.21;84.44;100758.84;5039424;28;10693;-78
2021/06/12 01:49:36;;;;;;;;;72.25;59.75;;;;;18.28;83.98;100748.53;5052810;28;11227;-78
2021/06/12 01:52:33;;;;;;;;;67.00;53.75;;;;;18.47;83.78;100752.34;5052814;28;10889;-77
2021/06/12 01:55:31;;;;;;;;;72.50;59.50;;;;;18.43;83.74;100757.13;5052671;28;11404;-77
2021/06/12 01:58:27;;;;;;;;;72.50;60.75;;;;;18.37;83.67;100761.44;5038926;28;10767;-78
2021/06/12 02:01:25;;;;;;;;;75.75;62.50;;;;;18.27;83.15;100766.53;5039296;28;10805;-77
2021/06/12 02:04:22;;;;;;;;;76.50;61.75;;;;;18.44;82.90;100762.31;5052411;28;11097;-78
2021/06/12 02:07:19;;;;;;;;;77.00;65.25;;;;;18.44;82.85;100764.31;5038981;28;10842;-77
2021/06/12 02:10:21;;;;;;;;;78.50;65.50;;;;;18.52;83.05;100757.63;5053778;28;11460;-78
2021/06/12 02:13:19;;;;;;;;;77.50;62.00;;;;;18.38;83.79;100763.84;5063632;28;11237;-78
2021/06/12 02:16:20;;;;;;;;;67.75;52.75;;;;;18.31;84.60;100769.38;5053209;28;11010;-77
2021/06/12 02:19:17;;;;;;;;;62.50;50.75;;;;;18.48;84.42;100770.75;5052198;28;10532;-77
2021/06/12 02:22:13;;;;;;;;;58.00;48.25;;;;;18.64;83.54;100776.97;5052230;28;10487;-77
2021/06/12 02:25:10;;;;;;;;;62.50;50.75;;;;;18.50;84.46;100766.41;5040595;28;10844;-77
2021/06/12 02:28:16;;;;;;;;;62.00;49.25;;;;;18.58;84.90;100773.69;5051642;28;10375;-78
2021/06/12 02:31:21;;;;;;;;;52.50;44.75;;;;;18.73;84.34;100780.28;5038931;28;9937;-77
2021/06/12 02:34:16;;;;;;;;;51.00;42.67;;;;;19.16;85.07;100773.06;5053324;28;9972;-77
2021/06/12 02:37:12;;;;;;;;;45.00;39.00;;;;;19.05;83.55;100774.19;5051618;28;9484;-77
2021/06/12 02:40:09;;;;;;;;;47.00;39.67;;;;;19.09;83.70;100778.66;5052230;28;9133;-77
2021/06/12 02:43:05;;;;;;;;;49.00;42.00;;;;;19.05;83.76;100777.78;5051886;28;9211;-78
2021/06/12 02:46:08;;;;;;;;;46.33;40.67;;;;;19.10;83.56;100773.84;5051842;28;9316;-77
2021/06/12 02:49:07;;;;;;;;;61.25;49.25;;;;;19.02;83.70;100777.78;5051447;28;9506;-77
2021/06/12 02:52:09;;;;;;;;;74.50;62.00;;;;;19.10;83.36;100782.25;5051663;28;10977;-77
2021/06/12 02:55:08;;;;;;;;;80.25;72.50;;;;;18.98;84.18;100777.72;5063470;28;10694;-77
2021/06/12 02:58:05;;;;;;;;;81.75;75.50;;;;;19.00;84.46;100774.53;5037801;28;11647;-77
2021/06/12 03:01:02;;;;;;;;;89.00;79.75;;;;;19.16;83.65;100777.88;5038490;28;11621;-77
2021/06/12 03:03:58;;;;;;;;;79.25;68.00;;;;;19.16;83.60;100781.47;5051115;28;11581;-77
2021/06/12 03:06:56;;;;;;;;;79.50;67.50;;;;;19.21;83.61;100780.34;5052929;28;11504;-77
2021/06/12 03:09:53;;;;;;;;;73.50;60.75;;;;;18.89;85.20;100783.66;5052703;28;10872;-76
2021/06/12 03:12:50;;;;;;;;;28.00;24.25;;;;;18.97;85.58;100792.13;5053079;28;10732;-77
2021/06/12 03:15:48;;;;;;;;;52.67;41.33;;;;;19.12;85.08;100782.66;5031635;28;10255;-77
2021/06/12 03:18:46;;;;;;;;;57.67;46.00;;;;;19.21;84.57;100785.94;5045691;28;9426;-77
2021/06/12 03:21:43;;;;;;;;;58.00;47.00;;;;;19.27;84.98;100801.22;5051484;28;9296;-77
2021/06/12 03:24:39;;;;;;;;;52.25;44.50;;;;;19.39;84.47;100802.91;5055490;28;9716;-77
2021/06/12 03:27:35;;;;;;;;;46.33;39.00;;;;;19.37;85.24;100799.69;5043387;28;9724;-77
2021/06/12 03:30:32;;;;;;;;;52.33;43.00;;;;;19.44;85.20;100811.78;5041583;28;9205;-77
2021/06/12 03:33:28;;;;;;;;;53.33;44.33;;;;;19.99;86.12;100803.34;5055453;28;9252;-77
2021/06/12 03:36:27;;;;;;;;;49.00;40.00;;;;;19.88;83.55;100815.72;5055136;28;10163;-77
2021/06/12 03:39:22;;;;;;;;;51.67;42.33;;;;;20.03;84.62;100819.44;5067328;28;9297;-77
2021/06/12 03:42:20;;;;;;;;;50.00;42.67;;;;;19.99;84.70;100803.34;5055124;28;9347;-78
2021/06/12 03:45:16;;;;;;;;;48.67;42.00;;;;;20.21;83.93;100818.31;5041987;28;9875;-77
2021/06/12 03:48:12;;;;;;;;;43.75;38.50;;;;;20.06;83.72;100818.63;5054798;28;8992;-77
2021/06/12 03:51:11;;;;;;;;;41.67;36.67;;;;;19.93;83.89;100837.78;5055302;28;8840;-77
2021/06/12 03:54:08;;;;;;;;;41.25;36.25;;;;;20.26;83.81;100832.00;5054975;28;8945;-77
2021/06/12 03:57:05;;;;;;;;;52.00;44.00;;;;;20.45;84.31;100833.69;5054817;28;8933;-77
2021/06/12 04:00:04;;;;;;;;;38.75;33.75;;;;;20.57;82.92;100837.38;5054196;28;9179;-76
2021/06/12 04:02:59;;;;;;;;;35.50;33.25;;;;;20.51;83.05;100843.38;5054629;28;9013;-78
2021/06/12 04:05:55;;;;;;;;;35.25;33.00;;;;;20.66;82.50;100835.81;5056177;28;8854;-78
2021/06/12 04:08:51;;;;;;;;;77.25;70.25;;;;;20.94;82.64;100831.47;5054269;28;8816;-77
2021/06/12 04:11:49;;;;;;;;;67.75;57.25;;;;;20.79;82.30;100833.44;5054654;28;10818;-77
2021/06/12 04:14:45;;;;;;;;;30.50;30.00;;;;;20.60;82.47;100843.00;5021334;28;10602;-78
2021/06/12 04:17:45;;;;;;;;;24.25;23.50;;;;;20.65;82.93;100836.19;5046956;28;8908;-77
2021/06/12 04:20:44;;;;;;;;;65.25;51.50;;;;;21.05;82.46;100847.16;5033942;28;9701;-76
2021/06/12 04:23:39;;;;;;;;;31.00;30.25;;;;;21.26;80.91;100848.41;5034426;28;9896;-77
2021/06/12 04:26:35;;;;;;;;;24.50;24.50;;;;;20.68;81.71;100847.44;5044459;28;8868;-77
2021/06/12 04:29:03;;;;;;;;;22.25;22.25;;;;;20.65;82.65;100851.06;5038728;28;8852;-77
2021/06/12 04:31:31;;;;;;;;;32.75;31.25;;;;;20.97;81.95;100847.53;5032141;28;8858;-77
2021/06/12 04:34:27;;;;;;;;;25.50;25.50;;;;;21.13;81.65;100844.34;5031909;28;8908;-77
2021/06/12 04:37:22;;;;;;;;;35.25;32.25;;;;;21.40;79.63;100844.81;5047248;28;8823;-77
2021/06/12 04:40:18;;;;;;;;;29.75;29.50;;;;;21.38;79.29;100850.81;5036572;28;8964;-77
2021/06/12 04:43:14;;;;;;;;;23.75;23.75;;;;;21.68;77.45;100853.25;5035768;28;8811;-78
2021/06/12 04:46:09;;;;;;;;;22.75;22.00;;;;;21.71;77.50;100851.66;5034433;28;9638;-77
2021/06/12 04:49:06;;;;;;;;;24.00;24.00;;;;;21.82;76.30;100856.06;5014781;28;8832;-77
2021/06/12 04:52:02;;;;;;;;;24.25;24.25;;;;;21.65;77.74;100856.88;5014783;28;8828;-77
2021/06/12 04:54:57;;;;;;;;;20.00;20.00;;;;;21.60;77.84;100857.28;5031334;28;9633;-77
2021/06/12 04:57:53;;;;;;;;;22.00;22.00;;;;;22.05;76.82;100854.81;5043576;28;9559;-76
2021/06/12 05:00:50;;;;;;;;;24.50;22.50;;;;;21.86;76.76;100856.88;5034351;28;8806;-76
2021/06/12 05:03:47;;;;;;;;;23.00;23.00;;;;;21.99;76.23;100859.25;5036756;28;8926;-75
2021/06/12 05:06:45;;;;;;;;;25.25;23.50;;;;;22.37;76.44;100858.38;5040414;28;9572;-76
2021/06/12 05:09:40;;;;;;;;;24.00;23.50;;;;;22.44;75.67;100852.72;5053585;28;9620;-75
2021/06/12 05:12:37;;;;;;;;;25.00;25.00;;;;;22.64;74.39;100853.06;5020620;28;8825;-74
2021/06/12 05:15:34;;;;;;;;;26.25;26.25;;;;;22.74;73.88;100857.81;5034815;28;8857;-77
2021/06/12 05:18:40;;;;;;;;;25.75;25.50;;;;;22.91;73.04;100858.97;5033338;28;9007;-77
2021/06/12 05:21:37;;;;;;;;;20.00;20.00;;;;;23.00;72.16;100861.34;5051647;28;8843;-73
2021/06/12 05:24:35;;;;;;;;;21.00;20.20;;;;;22.80;71.18;100861.03;5040234;28;8854;-77
2021/06/12 05:27:30;;;;;;;;;19.00;19.00;;;;;22.91;70.68;100861.00;5053108;28;9783;-73
2021/06/12 05:30:26;;;;;;;;;22.00;22.00;;;;;22.96;70.84;100860.56;5052605;28;8904;-77
2021/06/12 05:33:23;;;;;;;;;26.25;26.00;;;;;22.87;69.50;100872.31;5037762;28;8966;-75
2021/06/12 05:36:19;;;;;;;;;25.50;25.50;;;;;22.96;69.77;100867.00;5027113;28;8879;-76
2021/06/12 05:39:15;;;;;;;;;23.25;23.25;;;;;23.14;69.46;100866.09;5050881;28;8844;-73
2021/06/12 05:42:11;;;;;;;;;25.00;25.00;;;;;23.32;68.23;100866.78;5052431;28;8853;-72
2021/06/12 05:45:09;;;;;;;;;34.75;32.50;;;;;23.50;67.57;100866.66;5031081;28;8944;-73
2021/06/12 05:48:05;;;;;;;;;32.00;30.00;;;;;23.52;67.19;100864.22;5053087;28;8899;-74
2021/06/12 05:51:01;;;;;;;;;32.25;31.50;;;;;23.40;67.29;100861.91;5052719;28;8818;-75
2021/06/12 05:53:57;;;;;;;;;27.00;26.75;;;;;23.89;67.54;100866.34;5052557;28;9571;-75
2021/06/12 05:56:55;;;;;;;;;25.25;24.50;;;;;23.62;66.99;100862.53;5039357;28;8833;-75
2021/06/12 05:59:50;;;;;;;;;26.25;26.25;;;;;23.74;67.53;100856.38;5052569;28;8971;-75
2021/06/12 06:02:46;;;;;;;;;23.40;23.40;;;;;23.68;65.14;100858.06;5051788;28;8824;-74
2021/06/12 06:05:41;;;;;;;;;26.25;26.25;;;;;23.52;67.88;100856.53;5038945;28;8822;-75
2021/06/12 06:08:37;;;;;;;;;27.40;27.40;;;;;24.06;66.32;100865.34;5052141;28;8846;-73
2021/06/12 06:11:33;;;;;;;;;23.80;23.80;;;;;24.25;64.44;100868.81;5051570;28;8859;-74
2021/06/12 06:14:28;;;;;;;;;28.00;28.00;;;;;24.12;65.79;100866.50;5052420;28;8912;-75
2021/06/12 06:17:24;;;;;;;;;30.25;29.25;;;;;24.16;64.44;100872.13;5042263;28;8848;-73
2021/06/12 06:20:19;;;;;;;;;29.60;28.40;;;;;24.30;63.75;100868.31;5044421;28;8834;-74
2021/06/12 06:23:15;;;;;;;;;25.40;25.40;;;;;24.21;65.07;100868.03;5070679;28;8821;-75
2021/06/12 06:26:10;;;;;;;;;21.60;21.60;;;;;24.56;62.72;100869.69;5045363;28;8854;-73
2021/06/12 06:29:06;;;;;;;;;24.00;24.00;;;;;24.59;61.32;100875.28;5063196;28;8854;-74
2021/06/12 06:32:02;;;;;;;;;23.60;23.60;;;;;24.66;61.89;100878.03;5068618;28;8838;-73
2021/06/12 06:34:57;;;;;;;;;20.80;20.80;;;;;23.85;60.20;100872.03;5071839;28;8838;-72
2021/06/12 06:37:53;;;;;;;;;22.80;21.60;;;;;24.56;61.13;100881.78;5071775;28;8869;-74
2021/06/12 06:40:49;;;;;;;;;21.20;21.20;;;;;24.56;60.41;100881.00;5058301;28;8850;-74
2021/06/12 06:43:44;;;;;;;;;19.80;19.80;;;;;24.88;61.22;100881.38;5071587;28;8861;-74
2021/06/12 06:46:41;;;;;;;;;14.60;14.60;;;;;25.02;60.23;100888.88;5069245;28;8860;-72
2021/06/12 06:49:37;;;;;;;;;10.20;10.20;;;;;25.33;58.58;100884.00;5054549;28;8847;-73
2021/06/12 06:52:32;;;;;;;;;12.00;12.00;;;;;25.57;58.08;100884.84;5069305;28;8853;-73
2021/06/12 06:55:28;;;;;;;;;13.60;13.60;;;;;25.39;58.17;100876.63;5050787;28;9588;-74
2021/06/12 06:58:23;;;;;;;;;17.40;16.20;;;;;25.57;57.07;100882.00;5051763;28;8833;-73
2021/06/12 07:01:19;;;;;;;;;16.00;16.00;;;;;25.60;57.94;100875.47;5051713;28;8822;-75
2021/06/12 07:04:15;;;;;;;;;18.00;18.00;;;;;25.80;56.92;100875.59;5038199;28;8828;-75
2021/06/12 07:07:11;;;;;;;;;17.00;17.00;;;;;25.28;57.87;100889.34;5038267;28;8867;-75
2021/06/12 07:10:06;;;;;;;;;19.20;19.20;;;;;25.46;56.23;100892.72;5038289;28;8851;-74
2021/06/12 07:13:02;;;;;;;;;16.40;16.40;;;;;25.86;56.18;100884.41;5052857;28;8863;-74
2021/06/12 07:15:58;;;;;;;;;17.60;17.60;;;;;26.23;56.00;100883.31;5039521;28;8847;-74
2021/06/12 07:18:54;;;;;;;;;16.00;16.00;;;;;26.33;55.27;100885.16;5038420;28;8966;-74
2021/06/12 07:21:50;;;;;;;;;13.40;13.40;;;;;26.17;54.24;100887.88;5051534;28;8887;-75
2021/06/12 07:24:46;;;;;;;;;18.40;18.40;;;;;26.32;55.55;100878.66;5053012;28;8962;-75
2021/06/12 07:27:41;;;;;;;;;11.60;11.60;;;;;26.52;53.74;100880.72;5051303;28;8832;-75
2021/06/12 07:30:40;;;;;;;;;13.60;13.60;;;;;26.48;53.35;100880.81;5051421;28;8840;-74
2021/06/12 07:33:36;;;;;;;;;13.60;13.60;;;;;26.37;54.11;100882.22;5051274;28;8941;-74
2021/06/12 07:36:32;;;;;;;;;10.40;10.40;;;;;26.36;54.77;100886.28;5051111;28;8839;-75
2021/06/12 07:39:28;;;;;;;;;15.60;15.60;;;;;26.10;55.18;100880.31;5051140;28;8925;-74
2021/06/12 07:42:24;;;;;;;;;12.60;11.60;;;;;25.96;55.36;100887.03;5053106;28;8856;-73
2021/06/12 07:45:20;;;;;;;;;8.80;8.80;;;;;25.98;53.73;100890.22;5051538;28;8835;-74
2021/06/12 07:48:16;;;;;;;;;9.20;9.20;;;;;26.33;53.12;100882.31;5051357;28;8859;-74
2021/06/12 07:51:12;;;;;;;;;10.60;10.60;;;;;26.78;52.73;100885.47;5051040;28;8860;-75
2021/06/12 07:54:07;;;;;;;;;13.00;12.80;;;;;26.47;52.65;100876.38;5051109;28;8840;-73
2021/06/12 07:57:03;;;;;;;;;12.80;12.20;;;;;26.54;52.09;100875.44;5050950;28;8855;-72
2021/06/12 07:59:59;;;;;;;;;11.80;11.80;;;;;26.55;53.88;100877.84;5051111;28;8839;-74
2021/06/12 08:02:55;;;;;;;;;11.20;11.00;;;;;26.60;53.55;100880.16;5051152;28;8828;-74
2021/06/12 08:05:50;;;;;;;;;11.00;11.00;;;;;27.08;52.30;100880.81;5050838;28;8864;-73
2021/06/12 08:08:46;;;;;;;;;8.00;8.00;;;;;27.06;51.89;100878.38;5038039;28;8966;-74
2021/06/12 08:11:41;;;;;;;;;12.20;12.20;;;;;26.96;52.55;100878.59;5041075;28;8863;-73
2021/06/12 08:14:37;;;;;;;;;8.60;8.60;;;;;26.98;52.99;100882.59;5034635;28;8834;-73
2021/06/12 08:17:33;;;;;;;;;7.80;7.80;;;;;26.55;53.16;100874.22;5022034;28;8838;-73
2021/06/12 08:20:29;;;;;;;;;7.00;7.00;;;;;26.51;53.61;100879.13;5034596;28;8822;-76
2021/06/12 08:23:24;;;;;;;;;8.00;8.00;;;;;27.00;53.39;100874.44;5034547;28;8852;-73
2021/06/12 08:26:21;;;;;;;;;5.60;5.60;;;;;26.73;51.48;100877.47;5034365;28;8894;-75
2021/06/12 08:29:16;;;;;;;;;8.00;8.00;;;;;26.28;53.16;100871.47;5034411;28;8935;-72
2021/06/12 08:32:12;;;;;;;;;6.60;6.60;;;;;26.83;52.59;100869.94;5034184;28;8846;-74
2021/06/12 08:35:08;;;;;;;;;7.20;7.20;;;;;26.78;52.59;100870.47;5034342;28;8907;-74
2021/06/12 08:38:04;;;;;;;;;7.00;7.00;;;;;27.27;52.88;100876.28;5034526;28;8842;-72
2021/06/12 08:41:00;;;;;;;;;5.40;5.40;;;;;27.55;50.49;100886.19;5034016;28;8949;-75
2021/06/12 08:43:58;;;;;;;;;7.60;7.60;;;;;27.51;50.45;100880.56;5027354;28;8841;-75
2021/06/12 08:46:55;;;;;;;;;4.80;4.80;;;;;27.38;51.20;100876.84;5033960;28;8975;-76
2021/06/12 08:49:51;;;;;;;;;5.20;5.20;;;;;27.73;49.33;100869.50;5020643;28;8885;-73
2021/06/12 08:52:47;;;;;;;;;6.00;6.00;;;;;27.63;50.24;100864.88;5021153;28;8857;-75
2021/06/12 08:55:44;;;;;;;;;5.60;5.60;;;;;27.85;50.25;100868.78;5032953;28;8836;-75
2021/06/12 08:58:40;;;;;;;;;7.00;7.00;;;;;27.13;52.42;100866.88;5041705;28;9000;-76
2021/06/12 09:01:38;;;;;;;;;7.00;7.00;;;;;27.38;51.43;100871.19;5034347;28;8915;-74
2021/06/12 09:04:42;;;;;;;;;6.40;6.40;;;;;26.86;52.18;100872.72;5032807;28;8873;-70
2021/06/12 09:07:40;;;;;;;;;8.80;8.00;;;;;26.69;54.11;100870.28;5021425;28;8961;-73
2021/06/12 09:11:08;;;;;;;;;4.60;4.60;;;;;27.36;52.87;100865.91;5035650;28;8864;-74
2021/06/12 09:14:07;;;;;;;;;7.60;7.60;;;;;27.41;53.81;100871.06;5054598;28;8887;-74
2021/06/12 09:17:04;;;;;;;;;7.40;7.40;;;;;27.51;52.70;100874.09;5053669;28;8844;-72
2021/06/12 09:20:00;;;;;;;;;6.20;6.20;;;;;27.95;52.95;100867.72;5053375;28;8947;-74
2021/06/12 09:23:17;;;;;;;;;6.20;6.20;;;;;27.83;50.87;100862.75;5053404;28;8863;-75
2021/06/12 09:26:13;;;;;;;;;4.40;4.40;;;;;27.68;50.81;100859.50;5055992;28;8835;-69
2021/06/12 09:29:09;;;;;;;;;3.00;3.00;;;;;27.32;52.82;100856.69;5028655;28;8842;-75
2021/06/12 09:32:18;;;;;;;;;6.80;6.80;;;;;27.08;53.07;100863.78;5048216;28;9363;-74
2021/06/12 09:35:14;;;;;;;;;7.40;7.40;;;;;27.06;52.51;100855.66;5040074;28;8847;-74
2021/06/12 09:38:32;;;;;;;;;8.00;8.00;;;;;26.63;54.99;100850.13;5052549;28;8855;-73
2021/06/12 09:41:29;;;;;;;;;6.80;6.80;;;;;26.22;57.47;100853.34;5059392;28;8884;-73
2021/06/12 09:44:49;;;;;;;;;8.60;8.60;;;;;25.85;56.80;100851.66;5048836;28;8840;-73
2021/06/12 09:47:45;;;;;;;;;6.80;6.80;;;;;26.25;56.41;100841.97;5051656;28;8962;-74
2021/06/12 09:50:41;;;;;;;;;8.80;8.00;;;;;26.13;56.14;100845.44;5062769;28;8857;-74
2021/06/12 09:53:49;;;;;;;;;10.20;10.20;;;;;26.10;57.69;100851.19;5041971;28;8838;-74
2021/06/12 09:56:18;;;;;;;;;13.40;13.40;;;;;26.06;57.75;100851.22;5044429;28;8829;-74
2021/06/12 09:58:46;;;;;;;;;6.80;6.80;;;;;25.26;58.56;100849.34;5034342;28;8865;-73
2021/06/12 10:01:32;;;;;;;;;6.20;6.20;;;;;25.25;59.61;100844.94;5051912;28;9654;-73
2021/06/12 10:04:14;;;;;;;;;7.40;7.40;;;;;25.14;58.93;100845.06;5052080;28;8833;-72
2021/06/12 10:06:42;;;;;;;;;13.60;13.60;;;;;25.55;59.68;100847.66;5033170;28;8914;-74
2021/06/12 10:09:21;;;;;;;;;10.80;10.80;;;;;25.98;57.77;100842.06;5033921;28;8806;-74
2021/06/12 10:12:03;;;;;;;;;9.00;9.00;;;;;26.27;56.08;100842.31;5047387;28;8918;-71
2021/06/12 10:14:31;;;;;;;;;8.20;8.20;;;;;26.68;54.55;100835.41;5051884;28;8872;-72
2021/06/12 10:17:01;;;;;;;;;6.60;6.60;;;;;27.03;53.28;100833.81;5052142;28;8836;-73
2021/06/12 10:19:33;;;;;;;;;7.20;7.20;;;;;27.13;51.70;100838.47;5031843;28;8882;-72
2021/06/12 10:22:05;;;;;;;;;4.60;4.60;;;;;27.39;52.61;100838.69;5053919;28;9678;-73
2021/06/12 10:24:33;;;;;;;;;3.20;3.20;;;;;27.13;50.42;100835.63;5051943;28;8863;-72
2021/06/12 10:27:03;;;;;;;;;9.00;9.00;;;;;26.78;53.27;100837.25;5051304;28;8839;-72
2021/06/12 10:29:31;;;;;;;;;4.00;4.00;;;;;26.67;51.58;100833.81;5056145;28;8856;-72
2021/06/12 10:32:00;;;;;;;;;4.00;4.00;;;;;27.12;51.86;100833.25;5051267;28;8825;-73
2021/06/12 10:34:30;;;;;;;;;7.60;7.60;;;;;27.09;51.24;100842.66;5051922;28;8844;-73
2021/06/12 10:36:59;;;;;;;;;6.40;6.40;;;;;26.77;52.75;100834.84;5033341;28;8851;-72
2021/06/12 10:39:35;;;;;;;;;5.00;5.00;;;;;27.51;51.96;100820.94;5051700;28;9037;-74
2021/06/12 10:42:15;;;;;;;;;4.00;4.00;;;;;27.87;51.72;100815.16;5036121;28;8869;-74
2021/06/12 10:44:46;;;;;;;;;6.80;6.80;;;;;28.21;50.44;100817.44;5055533;28;8841;-74
2021/06/12 10:47:37;;;;;;;;;1.00;1.00;;;;;27.71;49.81;100812.34;5050822;28;8828;-71
2021/06/12 10:50:23;;;;;;;;;5.00;5.00;;;;;27.83;50.74;100814.44;5050088;28;8844;-73
2021/06/12 10:52:53;;;;;;;;;4.40;4.40;;;;;28.31;48.96;100817.63;5050868;28;8898;-72
2021/06/12 10:55:54;;;;;;;;;3.60;3.60;;;;;28.45;48.13;100812.34;5036260;28;8872;-73
2021/06/12 10:58:29;;;;;;;;;4.00;4.00;;;;;28.58;48.17;100803.81;5050434;28;8921;-73
2021/06/12 11:01:06;;;;;;;;;3.40;3.40;;;;;28.83;47.03;100810.78;5031349;28;8844;-74
2021/06/12 11:07:05;;;;;;;;;3.60;3.60;;;;;28.88;46.83;100808.16;5049514;28;8844;-74
2021/06/12 11:09:35;;;;;;;;;5.40;5.40;;;;;28.51;48.82;100806.84;5052630;28;8871;-72
2021/06/12 11:12:15;;;;;;;;;4.00;4.00;;;;;28.66;47.80;100807.22;5062130;28;8822;-73
2021/06/12 11:15:23;;;;;;;;;2.00;2.00;;;;;27.90;48.01;100794.34;5054329;28;8943;-71
2021/06/12 11:18:13;;;;;;;;;3.00;3.00;;;;;27.93;49.76;100792.66;5050145;28;8856;-71
2021/06/12 11:21:00;;;;;;;;;4.00;4.00;;;;;28.09;48.51;100795.47;5050951;28;8868;-72
2021/06/12 11:23:56;;;;;;;;;3.20;3.20;;;;;28.12;48.78;100794.56;5018055;28;8810;-72
2021/06/12 11:26:58;;;;;;;;;3.00;3.00;;;;;28.15;47.25;100792.88;5035886;28;8862;-72
2021/06/12 11:30:11;;;;;;;;;2.00;2.00;;;;;28.18;47.41;100792.75;5044246;28;8954;-73
2021/06/12 11:33:08;;;;;;;;;3.60;3.60;;;;;28.61;47.34;100787.91;5037744;28;8828;-71
2021/06/12 11:36:03;;;;;;;;;2.00;2.00;;;;;29.19;47.49;100791.34;5058176;28;8828;-71
2021/06/12 11:39:00;;;;;;;;;2.60;2.60;;;;;28.59;47.07;100794.00;5020190;28;8898;-74
2021/06/12 11:41:59;;;;;;;;;2.40;2.40;;;;;29.15;46.98;100789.88;5034857;28;8912;-73
2021/06/12 11:44:55;;;;;;;;;3.00;3.00;;;;;29.12;47.85;100790.78;5035477;28;8846;-72
2021/06/12 11:47:52;;;;;;;;;3.00;3.00;;;;;29.45;46.16;100786.41;5022089;28;8860;-72
2021/06/12 11:50:49;;;;;;;;;3.00;3.00;;;;;29.77;45.21;100782.47;5041187;28;9676;-71
2021/06/12 11:54:10;;;;;;;;;2.00;2.00;;;;;29.79;44.01;100785.66;5050274;28;8876;-72
2021/06/12 11:57:07;;;;;;;;;4.00;4.00;;;;;29.51;43.74;100778.88;5039992;28;8858;-73
2021/06/12 12:00:04;;;;;;;;;3.00;3.00;;;;;29.54;43.17;100777.19;5051345;28;8873;-75
2021/06/12 12:02:42;;;;;;;;;2.00;2.00;;;;;29.16;44.22;100785.78;5022667;28;8867;-75
2021/06/12 12:05:42;;;;;;;;;3.60;3.60;;;;;28.97;45.93;100774.16;5054691;28;8848;-75
2021/06/12 12:08:43;;;;;;;;;3.80;3.80;;;;;28.32;46.98;100785.91;5054645;28;8836;-74
2021/06/12 12:11:39;;;;;;;;;4.80;4.80;;;;;28.00;46.42;100774.63;5034434;28;9024;-74
2021/06/12 12:14:40;;;;;;;;;5.00;5.00;;;;;28.18;47.31;100775.69;5036237;28;8882;-75
2021/06/12 12:17:35;;;;;;;;;3.80;3.80;;;;;28.63;46.38;100771.94;5035208;28;8880;-74
2021/06/12 12:20:37;;;;;;;;;4.20;4.20;;;;;28.52;46.31;100772.28;5005901;28;8861;-74
2021/06/12 12:23:32;;;;;;;;;4.00;4.00;;;;;28.26;47.28;100770.59;5036140;28;8849;-75
2021/06/12 12:26:34;;;;;;;;;5.00;5.00;;;;;28.63;47.48;100771.16;5056473;28;8817;-74
2021/06/12 12:29:32;;;;;;;;;5.00;5.00;;;;;28.44;46.77;100758.72;5041917;28;8866;-74
2021/06/12 12:32:29;;;;;;;;;4.00;4.00;;;;;28.42;47.23;100762.03;5053534;28;8847;-73
2021/06/12 12:35:24;;;;;;;;;3.00;3.00;;;;;28.68;45.50;100753.53;5021636;28;8869;-72
2021/06/12 12:38:21;;;;;;;;;3.20;3.20;;;;;28.66;45.48;100751.13;5053698;28;8855;-73
2021/06/12 12:41:17;;;;;;;;;3.40;3.40;;;;;28.98;44.16;100744.41;5056302;28;8838;-73
2021/06/12 12:44:17;;;;;;;;;2.40;2.40;;;;;29.72;42.45;100743.16;5041917;28;8885;-73
2021/06/12 12:47:24;;;;;;;;;2.00;2.00;;;;;30.35;41.25;100738.38;5060436;28;8848;-73
2021/06/12 12:50:20;;;;;;;;;1.60;1.60;;;;;30.33;43.02;100741.72;5056797;28;8848;-73
2021/06/12 12:53:19;;;;;;;;;1.20;1.20;;;;;30.80;42.46;100740.69;5065787;28;8835;-74
2021/06/12 12:56:15;;;;;;;;;3.00;3.00;;;;;31.47;39.71;100753.44;5052160;28;9658;-73
2021/06/12 12:59:11;;;;;;;;;2.00;2.00;;;;;31.76;39.63;100748.06;5064415;28;8841;-72
2021/06/12 13:02:07;;;;;;;;;2.00;2.00;;;;;29.93;41.39;100738.72;5072998;28;8979;-72
2021/06/12 13:05:12;;;;;;;;;2.60;2.60;;;;;30.19;42.80;100739.41;5068919;28;8876;-74
2021/06/12 13:08:10;;;;;;;;;5.00;5.00;;;;;29.58;44.61;100737.94;5053106;28;8871;-73
2021/06/12 13:11:06;;;;;;;;;3.00;3.00;;;;;29.44;44.28;100736.34;5049824;28;8844;-73
2021/06/12 13:13:40;;;;;;;;;1.60;1.60;;;;;29.35;44.24;100736.28;5051351;28;8883;-74
2021/06/12 13:16:08;;;;;;;;;2.40;2.40;;;;;30.26;42.98;100735.47;5050842;28;8840;-73
2021/06/12 13:18:38;;;;;;;;;2.00;2.00;;;;;30.43;41.67;100734.00;5052703;28;9606;-73
2021/06/12 13:21:11;;;;;;;;;1.00;1.00;;;;;30.53;41.69;100732.00;5032247;28;8871;-70
2021/06/12 13:23:39;;;;;;;;;0.80;0.80;;;;;30.10;41.22;100727.94;5034746;28;8851;-73
2021/06/12 13:26:25;;;;;;;;;1.00;1.00;;;;;30.54;42.12;100725.81;5051388;28;8836;-70
2021/06/12 13:29:20;;;;;;;;;3.60;3.60;;;;;30.13;40.43;100727.00;5055413;28;8966;-72
2021/06/12 13:31:50;;;;;;;;;2.00;2.00;;;;;30.14;41.17;100725.75;5051752;28;9595;-74